createdAt,value
2017-08-02T00:00:15.973Z,79.10
2017-08-02T00:02:43.448Z,79.11
2017-08-02T00:05:10.936Z,78.98
2017-08-02T00:07:38.386Z,78.91
2017-08-02T00:10:05.890Z,78.93
2017-08-02T00:12:33.382Z,78.73
2017-08-02T00:15:00.875Z,78.60
2017-08-02T00:17:28.333Z,78.56
2017-08-02T00:19:55.825Z,78.60
2017-08-02T00:22:23.280Z,79.83
2017-08-02T00:24:50.786Z,80.74
2017-08-02T00:27:18.241Z,81.16
2017-08-02T00:29:45.754Z,81.00
2017-08-02T00:32:13.236Z,80.18
2017-08-02T00:34:40.695Z,80.67
2017-08-02T00:37:08.186Z,80.96
2017-08-02T00:39:35.645Z,80.46
2017-08-02T00:42:03.128Z,80.05
2017-08-02T00:44:30.592Z,79.73
2017-08-02T00:46:58.072Z,79.44
2017-08-02T00:49:25.537Z,79.23
2017-08-02T00:51:53.023Z,79.20
2017-08-02T00:54:20.518Z,79.33
2017-08-02T00:56:47.981Z,79.90
2017-08-02T00:59:15.473Z,80.36
2017-08-02T01:01:42.944Z,80.19
2017-08-02T01:04:10.453Z,79.98
2017-08-02T01:06:37.897Z,79.93
2017-08-02T01:09:05.358Z,80.02
2017-08-02T01:11:33.012Z,79.94
2017-08-02T01:14:00.486Z,80.09
2017-08-02T01:16:27.944Z,80.27
2017-08-02T01:18:55.431Z,80.60
2017-08-02T01:21:22.885Z,80.72
2017-08-02T01:23:50.362Z,80.58
2017-08-02T01:26:17.858Z,80.52
2017-08-02T01:28:45.317Z,80.25
2017-08-02T01:31:12.820Z,80.01
2017-08-02T01:33:40.277Z,79.78
2017-08-02T01:36:07.765Z,79.74
2017-08-02T01:38:35.229Z,79.86
2017-08-02T01:41:02.751Z,79.88
2017-08-02T01:43:30.224Z,80.27
2017-08-02T01:45:57.674Z,81.17
2017-08-02T01:48:25.158Z,81.20
2017-08-02T01:50:52.614Z,80.96
2017-08-02T01:53:20.092Z,80.70
2017-08-02T01:55:47.553Z,80.70
2017-08-02T01:58:15.038Z,80.73
2017-08-02T02:00:43.336Z,80.71
2017-08-02T02:03:10.813Z,80.83
2017-08-02T02:05:38.268Z,80.84
2017-08-02T02:08:05.764Z,80.80
2017-08-02T02:10:33.213Z,80.78
2017-08-02T02:13:00.673Z,80.78
2017-08-02T02:15:28.162Z,80.77
2017-08-02T02:17:55.626Z,81.45
2017-08-02T02:20:23.118Z,81.54
2017-08-02T02:22:50.571Z,81.60
2017-08-02T02:25:18.057Z,81.50
2017-08-02T02:27:45.514Z,81.40
2017-08-02T02:30:12.993Z,81.44
2017-08-02T02:32:40.456Z,81.39
2017-08-02T02:35:07.936Z,81.36
2017-08-02T02:37:35.392Z,81.43
2017-08-02T02:40:02.868Z,81.37
2017-08-02T02:42:30.359Z,81.21
2017-08-02T02:44:57.818Z,81.37
2017-08-02T02:47:25.327Z,81.29
2017-08-02T02:49:52.803Z,81.14
2017-08-02T02:52:20.379Z,81.25
2017-08-02T02:54:47.835Z,81.24
2017-08-02T02:57:15.306Z,81.36
2017-08-02T02:59:42.750Z,81.59
2017-08-02T03:02:10.271Z,81.67
2017-08-02T03:04:37.727Z,81.98
2017-08-02T03:07:05.198Z,81.96
2017-08-02T03:09:32.687Z,82.09
2017-08-02T03:12:00.139Z,82.13
2017-08-02T03:14:27.635Z,81.87
2017-08-02T03:16:55.099Z,81.99
2017-08-02T03:19:22.576Z,81.85
2017-08-02T03:21:50.029Z,81.80
2017-08-02T03:24:17.526Z,81.67
2017-08-02T03:26:45.021Z,81.62
2017-08-02T03:29:12.494Z,81.55
2017-08-02T03:31:39.955Z,81.53
2017-08-02T03:34:07.447Z,81.64
2017-08-02T03:36:34.945Z,81.55
2017-08-02T03:39:02.399Z,81.40
2017-08-02T03:41:29.899Z,81.27
2017-08-02T03:43:58.065Z,81.39
2017-08-02T03:46:25.603Z,81.38
2017-08-02T03:48:53.043Z,81.35
2017-08-02T03:51:20.499Z,81.31
2017-08-02T03:53:47.993Z,81.19
2017-08-02T03:56:15.461Z,81.11
2017-08-02T03:58:42.950Z,81.15
2017-08-02T04:01:10.410Z,81.05
2017-08-02T04:03:37.879Z,81.02
2017-08-02T04:06:05.342Z,80.74
2017-08-02T04:08:32.927Z,80.96
2017-08-02T04:11:00.389Z,80.85
2017-08-02T04:13:27.843Z,80.60
2017-08-02T04:15:56.012Z,80.40
2017-08-02T04:18:23.495Z,80.53
2017-08-02T04:20:50.997Z,80.48
2017-08-02T04:23:18.490Z,80.42
2017-08-02T04:25:45.990Z,80.28
2017-08-02T04:28:13.455Z,80.16
2017-08-02T04:30:40.938Z,80.15
2017-08-02T04:33:08.395Z,80.27
2017-08-02T04:35:35.856Z,80.43
2017-08-02T04:38:03.384Z,80.46
2017-08-02T04:40:30.949Z,80.24
2017-08-02T04:42:58.453Z,80.18
2017-08-02T04:45:25.942Z,80.29
2017-08-02T04:47:53.427Z,80.25
2017-08-02T04:50:20.922Z,80.04
2017-08-02T04:52:48.442Z,80.14
2017-08-02T04:55:15.898Z,80.16
2017-08-02T04:57:43.546Z,80.07
2017-08-02T05:00:11.010Z,80.10
2017-08-02T05:02:38.467Z,80.00
2017-08-02T05:05:05.947Z,80.02
2017-08-02T05:07:33.415Z,79.77
2017-08-02T05:10:00.910Z,79.57
2017-08-02T05:12:28.389Z,79.49
2017-08-02T05:14:55.876Z,79.70
2017-08-02T05:17:23.335Z,79.58
2017-08-02T05:19:50.794Z,79.93
2017-08-02T05:22:18.274Z,80.08
2017-08-02T05:24:45.748Z,79.77
2017-08-02T05:27:13.230Z,79.76
2017-08-02T05:29:40.717Z,79.62
2017-08-02T05:32:08.199Z,79.58
2017-08-02T05:34:36.356Z,79.34
2017-08-02T05:37:03.872Z,79.12
2017-08-02T05:39:31.343Z,78.89
2017-08-02T05:41:58.827Z,78.79
2017-08-02T05:44:26.285Z,78.66
2017-08-02T05:46:53.766Z,78.67
2017-08-02T05:49:21.266Z,78.48
2017-08-02T05:51:48.746Z,78.11
2017-08-02T05:54:16.236Z,78.81
2017-08-02T05:56:43.688Z,78.95
2017-08-02T05:59:11.189Z,78.89
2017-08-02T06:01:38.660Z,78.83
2017-08-02T06:04:06.157Z,78.61
2017-08-02T06:06:33.618Z,78.30
2017-08-02T06:09:01.138Z,78.10
2017-08-02T06:11:28.596Z,78.34
2017-08-02T06:13:56.104Z,78.79
2017-08-02T06:16:23.597Z,78.74
2017-08-02T06:18:51.061Z,78.89
2017-08-02T06:21:18.564Z,78.64
2017-08-02T06:23:46.025Z,78.40
2017-08-02T06:26:13.562Z,78.71
2017-08-02T06:28:41.032Z,78.81
2017-08-02T06:31:08.554Z,78.50
2017-08-02T06:33:36.023Z,77.84
2017-08-02T06:36:03.506Z,77.24
2017-08-02T06:38:30.961Z,77.37
2017-08-02T06:40:58.700Z,77.20
2017-08-02T06:43:26.209Z,76.87
2017-08-02T06:45:53.723Z,76.46
2017-08-02T06:48:21.246Z,76.25
2017-08-02T06:50:48.762Z,75.99
2017-08-02T06:53:16.290Z,75.53
2017-08-02T06:55:43.928Z,75.20
2017-08-02T06:58:11.398Z,75.29
2017-08-02T07:00:38.950Z,75.33
2017-08-02T07:03:06.488Z,75.40
2017-08-02T07:05:34.011Z,75.30
2017-08-02T07:08:01.614Z,75.12
2017-08-02T07:10:29.068Z,75.02
2017-08-02T07:12:56.691Z,74.51
2017-08-02T07:15:24.188Z,74.15
2017-08-02T07:17:51.641Z,74.05
2017-08-02T07:20:19.231Z,73.55
2017-08-02T07:22:46.718Z,73.32
2017-08-02T07:25:14.268Z,72.93
2017-08-02T07:27:41.737Z,73.02
2017-08-02T07:30:09.244Z,72.72
2017-08-02T07:32:37.726Z,72.16
2017-08-02T07:35:05.304Z,72.67
2017-08-02T07:37:32.798Z,72.61
2017-08-02T07:40:00.302Z,72.55
2017-08-02T07:42:27.818Z,71.95
2017-08-02T07:44:55.338Z,71.88
2017-08-02T07:47:23.068Z,72.02
2017-08-02T07:49:50.565Z,72.14
2017-08-02T07:52:18.070Z,71.81
2017-08-02T07:54:45.528Z,70.76
2017-08-02T07:57:13.045Z,70.42
2017-08-02T07:59:40.769Z,70.37
2017-08-02T08:02:09.966Z,70.25
2017-08-02T08:04:37.458Z,69.64
2017-08-02T08:07:05.900Z,69.71
2017-08-02T08:09:33.390Z,69.31
2017-08-02T08:12:00.850Z,69.15
2017-08-02T08:14:28.368Z,67.84
2017-08-02T08:16:55.874Z,67.21
2017-08-02T08:19:23.415Z,66.81
2017-08-02T08:21:50.904Z,66.47
2017-08-02T08:24:18.382Z,65.36
2017-08-02T08:26:45.869Z,66.06
2017-08-02T08:29:13.366Z,65.03
2017-08-02T08:31:40.850Z,65.55
2017-08-02T08:34:08.328Z,64.15
2017-08-02T08:36:35.834Z,62.55
2017-08-02T08:39:03.348Z,62.72
2017-08-02T08:41:31.681Z,61.98
2017-08-02T08:43:59.211Z,62.34
2017-08-02T08:46:26.749Z,62.05
2017-08-02T08:48:54.255Z,62.08
2017-08-02T08:51:21.713Z,61.76
2017-08-02T08:53:49.216Z,59.28
2017-08-02T08:56:16.809Z,59.01
2017-08-02T08:58:44.427Z,58.68
2017-08-02T09:01:12.243Z,58.68
2017-08-02T09:03:39.730Z,59.22
2017-08-02T09:06:07.193Z,58.78
2017-08-02T09:08:34.717Z,58.55
2017-08-02T09:11:03.236Z,58.20
2017-08-02T09:13:30.733Z,58.19
2017-08-02T09:15:58.214Z,57.64
2017-08-02T09:18:25.737Z,57.15
2017-08-02T09:20:53.221Z,55.96
2017-08-02T09:23:20.703Z,57.78
2017-08-02T09:25:48.203Z,58.35
2017-08-02T09:28:15.796Z,58.18
2017-08-02T09:30:43.334Z,55.10
2017-08-02T09:33:11.446Z,55.36
2017-08-02T09:35:38.981Z,55.82
2017-08-02T09:38:07.158Z,55.22
2017-08-02T09:40:34.684Z,54.25
2017-08-02T09:43:02.255Z,53.57
2017-08-02T09:45:30.532Z,54.69
2017-08-02T09:47:58.036Z,53.89
2017-08-02T09:50:25.490Z,54.43
2017-08-02T09:52:52.992Z,53.43
2017-08-02T09:55:20.449Z,52.61
2017-08-02T09:57:48.413Z,52.89
2017-08-02T10:00:15.945Z,53.54
2017-08-02T10:02:43.471Z,52.02
2017-08-02T10:05:11.768Z,53.32
2017-08-02T10:07:39.863Z,51.95
2017-08-02T10:10:07.338Z,50.93
2017-08-02T10:12:34.858Z,49.14
2017-08-02T10:15:02.670Z,48.69
2017-08-02T10:17:30.125Z,48.01
2017-08-02T10:19:57.638Z,47.77
2017-08-02T10:22:25.159Z,47.85
2017-08-02T10:24:52.728Z,47.19
2017-08-02T10:27:20.976Z,47.12
2017-08-02T10:29:48.596Z,48.22
2017-08-02T10:32:17.205Z,47.50
2017-08-02T10:34:44.687Z,45.44
2017-08-02T10:37:12.166Z,45.79
2017-08-02T10:39:39.982Z,43.54
2017-08-02T10:42:09.017Z,44.41
2017-08-02T10:44:36.842Z,45.19
2017-08-02T10:47:04.359Z,45.17
2017-08-02T10:49:31.856Z,44.39
2017-08-02T10:51:59.680Z,43.66
2017-08-02T10:54:28.273Z,43.71
2017-08-02T10:56:55.825Z,43.37
2017-08-02T10:59:23.405Z,43.04
2017-08-02T11:01:50.911Z,43.64
2017-08-02T11:04:18.581Z,43.73
2017-08-02T11:06:47.041Z,42.35
2017-08-02T11:09:14.563Z,41.04
2017-08-02T11:11:42.148Z,40.55
2017-08-02T11:14:09.717Z,41.73
2017-08-02T11:16:37.246Z,40.75
2017-08-02T11:19:04.863Z,39.06
2017-08-02T11:21:35.497Z,38.87
2017-08-02T11:24:02.990Z,37.40
2017-08-02T11:26:30.476Z,39.13
2017-08-02T11:28:58.077Z,39.90
2017-08-02T11:31:25.533Z,40.13
2017-08-02T11:33:53.024Z,41.59
2017-08-02T11:36:20.545Z,41.06
2017-08-02T11:38:48.000Z,41.08
2017-08-02T11:41:15.499Z,40.35
2017-08-02T11:43:43.078Z,41.11
2017-08-02T11:46:10.542Z,41.08
2017-08-02T11:48:38.046Z,40.90
2017-08-02T11:51:05.527Z,41.26
2017-08-02T11:53:33.616Z,41.70
2017-08-02T11:56:01.472Z,41.17
2017-08-02T11:58:28.958Z,40.48
2017-08-02T12:00:56.458Z,40.73
2017-08-02T12:03:23.966Z,41.05
2017-08-02T12:05:51.450Z,40.69
2017-08-02T12:08:18.925Z,41.60
2017-08-02T12:10:46.433Z,41.71
2017-08-02T12:13:13.927Z,41.82
2017-08-02T12:15:41.415Z,41.64
2017-08-02T12:18:08.894Z,40.91
2017-08-02T12:20:36.388Z,40.37
2017-08-02T12:23:03.849Z,40.62
2017-08-02T12:25:31.321Z,40.85
2017-08-02T12:27:58.819Z,40.38
2017-08-02T12:30:26.271Z,40.52
2017-08-02T12:32:53.759Z,40.67
2017-08-02T12:35:21.234Z,40.52
2017-08-02T12:37:48.741Z,40.42
2017-08-02T12:40:16.820Z,39.72
2017-08-02T12:42:44.332Z,39.99
2017-08-02T12:45:11.790Z,39.64
2017-08-02T12:47:39.266Z,39.70
2017-08-02T12:50:06.765Z,39.45
2017-08-02T12:52:34.230Z,39.16
2017-08-02T12:55:01.717Z,38.80
2017-08-02T12:57:29.180Z,38.76
2017-08-02T12:59:56.658Z,38.57
2017-08-02T13:02:24.225Z,38.93
2017-08-02T13:04:51.775Z,37.66
2017-08-02T13:07:19.311Z,37.78
2017-08-02T13:09:46.789Z,37.11
2017-08-02T13:12:14.241Z,35.96
2017-08-02T13:14:41.756Z,37.21
2017-08-02T13:17:09.308Z,36.51
2017-08-02T13:19:36.792Z,37.25
2017-08-02T13:22:04.282Z,36.92
2017-08-02T13:24:31.757Z,37.01
2017-08-02T13:26:59.241Z,37.44
2017-08-02T13:29:26.759Z,37.07
2017-08-02T13:31:54.259Z,36.34
2017-08-02T13:34:21.710Z,34.13
2017-08-02T13:36:50.029Z,34.25
2017-08-02T13:39:17.595Z,35.11
2017-08-02T13:41:45.097Z,35.06
2017-08-02T13:44:12.718Z,34.81
2017-08-02T13:46:40.284Z,33.91
2017-08-02T13:49:08.680Z,33.43
2017-08-02T13:51:36.158Z,34.73
2017-08-02T13:54:04.392Z,34.55
2017-08-02T13:56:32.150Z,34.84
2017-08-02T13:58:59.681Z,34.44
2017-08-02T14:01:27.220Z,34.54
2017-08-02T14:03:54.724Z,34.51
2017-08-02T14:06:22.181Z,34.98
2017-08-02T14:08:49.790Z,34.92
2017-08-02T14:11:17.294Z,33.26
2017-08-02T14:13:44.762Z,32.85
2017-08-02T14:16:12.253Z,30.82
2017-08-02T14:18:39.710Z,30.82
2017-08-02T14:21:07.540Z,30.89
2017-08-02T14:23:34.999Z,31.19
2017-08-02T14:26:03.406Z,30.68
2017-08-02T14:28:30.881Z,30.57
2017-08-02T14:30:58.357Z,30.90
2017-08-02T14:33:25.899Z,30.46
2017-08-02T14:35:53.366Z,30.73
2017-08-02T14:38:20.899Z,30.35
2017-08-02T14:40:48.402Z,30.71
2017-08-02T14:43:17.014Z,29.16
2017-08-02T14:45:44.532Z,29.11
2017-08-02T14:48:12.054Z,28.71
2017-08-02T14:50:39.514Z,28.91
2017-08-02T14:53:07.080Z,29.22
2017-08-02T14:55:34.554Z,29.53
2017-08-02T14:58:02.278Z,30.20
2017-08-02T15:00:29.763Z,30.42
2017-08-02T15:02:57.230Z,30.36
2017-08-02T15:05:24.832Z,30.94
2017-08-02T15:07:52.307Z,30.16
2017-08-02T15:10:19.810Z,29.33
2017-08-02T15:12:47.303Z,28.61
2017-08-02T15:15:14.895Z,28.74
2017-08-02T15:17:42.384Z,29.18
2017-08-02T15:20:09.866Z,28.46
2017-08-02T15:22:37.350Z,29.13
2017-08-02T15:25:04.840Z,28.75
2017-08-02T15:27:32.318Z,29.40
2017-08-02T15:29:59.784Z,29.41
2017-08-02T15:32:27.280Z,29.46
2017-08-02T15:34:54.768Z,29.94
2017-08-02T15:37:22.349Z,30.34
2017-08-02T15:39:49.909Z,30.10
2017-08-02T15:42:17.396Z,30.21
2017-08-02T15:44:44.900Z,29.37
2017-08-02T15:47:12.941Z,29.39
2017-08-02T15:49:40.430Z,28.52
2017-08-02T15:52:07.940Z,27.62
2017-08-02T15:54:35.453Z,27.39
2017-08-02T15:57:02.977Z,26.80
2017-08-02T15:59:30.466Z,27.13
2017-08-02T16:01:57.926Z,27.88
2017-08-02T16:04:25.424Z,27.26
2017-08-02T16:06:52.936Z,28.24
2017-08-02T16:09:20.403Z,28.85
2017-08-02T16:11:47.900Z,29.21
2017-08-02T16:14:15.408Z,29.25
2017-08-02T16:16:42.897Z,30.03
2017-08-02T16:19:11.232Z,30.88
2017-08-02T16:21:38.723Z,31.18
2017-08-02T16:24:06.280Z,30.53
2017-08-02T16:26:33.809Z,30.43
2017-08-02T16:29:01.274Z,30.77
2017-08-02T16:31:28.783Z,30.67
2017-08-02T16:33:56.291Z,30.68
2017-08-02T16:36:23.775Z,31.31
2017-08-02T16:38:51.278Z,32.00
2017-08-02T16:41:18.802Z,34.03
2017-08-02T16:43:46.286Z,34.67
2017-08-02T16:46:13.835Z,32.96
2017-08-02T16:48:43.004Z,32.71
2017-08-02T16:51:10.472Z,34.67
2017-08-02T16:53:37.980Z,34.75
2017-08-02T16:56:05.446Z,35.83
2017-08-02T16:58:32.909Z,36.19
2017-08-02T17:01:00.542Z,34.93
2017-08-02T17:03:27.989Z,36.40
2017-08-02T17:05:55.492Z,35.74
2017-08-02T17:08:22.990Z,35.19
2017-08-02T17:10:50.585Z,35.04
2017-08-02T17:13:18.185Z,35.49
2017-08-02T17:15:46.463Z,35.66
2017-08-02T17:18:13.928Z,37.09
2017-08-02T17:20:41.422Z,37.57
2017-08-02T17:23:08.926Z,37.96
2017-08-02T17:25:36.426Z,37.25
2017-08-02T17:28:03.891Z,36.89
2017-08-02T17:30:31.490Z,37.01
2017-08-02T17:32:58.947Z,37.40
2017-08-02T17:35:26.455Z,38.30
2017-08-02T17:37:54.020Z,39.73
2017-08-02T17:40:21.519Z,38.97
2017-08-02T17:42:49.017Z,39.53
2017-08-02T17:45:16.554Z,39.83
2017-08-02T17:47:44.056Z,39.24
2017-08-02T17:50:11.571Z,39.70
2017-08-02T17:52:39.036Z,39.15
2017-08-02T17:55:06.535Z,39.61
2017-08-02T17:57:34.034Z,40.07
2017-08-02T18:00:01.649Z,40.55
2017-08-02T18:02:30.264Z,40.88
2017-08-02T18:04:57.756Z,40.72
2017-08-02T18:07:25.240Z,41.32
2017-08-02T18:09:52.730Z,41.35
2017-08-02T18:12:20.924Z,41.54
2017-08-02T18:14:52.961Z,41.88
2017-08-02T18:17:20.471Z,42.20
2017-08-02T18:19:47.940Z,42.49
2017-08-02T18:22:15.458Z,42.27
2017-08-02T18:24:42.932Z,42.60
2017-08-02T18:27:10.405Z,42.83
2017-08-02T18:29:37.927Z,42.68
2017-08-02T18:32:05.422Z,42.96
2017-08-02T18:34:32.894Z,43.01
2017-08-02T18:37:00.385Z,43.38
2017-08-02T18:39:27.895Z,43.47
2017-08-02T18:41:55.409Z,43.34
2017-08-02T18:44:22.892Z,43.66
2017-08-02T18:46:50.459Z,44.08
2017-08-02T18:49:18.280Z,44.52
2017-08-02T18:51:45.740Z,44.90
2017-08-02T18:54:13.239Z,45.96
2017-08-02T18:56:40.736Z,46.48
2017-08-02T18:59:08.193Z,47.05
2017-08-02T19:01:35.710Z,47.74
2017-08-02T19:04:03.947Z,48.28
2017-08-02T19:06:31.410Z,48.30
2017-08-02T19:08:58.882Z,48.47
2017-08-02T19:11:26.420Z,48.45
2017-08-02T19:13:53.887Z,48.55
2017-08-02T19:16:19.815Z,48.77
2017-08-02T19:18:45.711Z,49.01
2017-08-02T19:21:11.673Z,49.32
2017-08-02T19:23:37.602Z,50.27
2017-08-02T19:26:03.522Z,50.48
2017-08-02T19:28:29.559Z,50.59
2017-08-02T19:30:55.433Z,50.59
2017-08-02T19:33:22.174Z,50.62
2017-08-02T19:35:48.046Z,50.85
2017-08-02T19:38:13.932Z,51.61
2017-08-02T19:40:40.051Z,52.74
2017-08-02T19:43:05.940Z,53.75
2017-08-02T19:45:31.826Z,54.48
2017-08-02T19:47:57.706Z,54.92
2017-08-02T19:50:24.432Z,55.14
2017-08-02T19:52:50.330Z,55.92
2017-08-02T19:55:16.197Z,56.07
2017-08-02T19:57:42.050Z,56.27
2017-08-02T20:00:08.275Z,56.63
2017-08-02T20:02:34.185Z,56.55
2017-08-02T20:05:00.097Z,56.89
2017-08-02T20:07:26.001Z,57.48
2017-08-02T20:09:51.910Z,57.18
2017-08-02T20:12:17.811Z,57.02
2017-08-02T20:14:43.742Z,57.29
2017-08-02T20:17:09.647Z,57.17
2017-08-02T20:19:35.583Z,57.87
2017-08-02T20:22:01.445Z,57.71
2017-08-02T20:24:27.374Z,57.77
2017-08-02T20:26:53.255Z,57.67
2017-08-02T20:29:19.245Z,57.90
2017-08-02T20:31:45.223Z,58.14
2017-08-02T20:34:11.114Z,58.33
2017-08-02T20:36:36.998Z,58.49
2017-08-02T20:39:02.946Z,59.09
2017-08-02T20:41:29.132Z,59.00
2017-08-02T20:43:54.984Z,58.93
2017-08-02T20:46:20.816Z,59.11
2017-08-02T20:48:46.738Z,59.09
2017-08-02T20:51:12.635Z,59.23
2017-08-02T20:53:38.532Z,59.17
2017-08-02T20:56:04.377Z,59.28
2017-08-02T20:58:30.245Z,59.47
2017-08-02T21:00:56.160Z,59.97
2017-08-02T21:03:21.993Z,60.14
2017-08-02T21:05:47.881Z,60.35
2017-08-02T21:08:13.737Z,60.21
2017-08-02T21:10:39.696Z,60.03
2017-08-02T21:13:06.507Z,60.02
2017-08-02T21:15:32.365Z,60.31
2017-08-02T21:17:59.259Z,60.62
2017-08-02T21:20:25.141Z,60.48
2017-08-02T21:22:51.042Z,60.42
2017-08-02T21:25:16.933Z,60.62
2017-08-02T21:27:42.810Z,60.85
2017-08-02T21:30:08.671Z,61.33
2017-08-02T21:32:34.899Z,61.40
2017-08-02T21:35:00.771Z,61.84
2017-08-02T21:37:26.681Z,61.93
2017-08-02T21:39:52.626Z,61.98
2017-08-02T21:42:18.515Z,62.49
2017-08-02T21:44:44.433Z,62.41
2017-08-02T21:47:10.374Z,62.66
2017-08-02T21:49:36.255Z,63.08
2017-08-02T21:52:02.175Z,63.47
2017-08-02T21:54:28.145Z,63.36
2017-08-02T21:56:54.007Z,63.26
2017-08-02T21:59:19.924Z,63.16
2017-08-02T22:01:45.774Z,63.32
2017-08-02T22:04:11.650Z,63.51
2017-08-02T22:06:37.550Z,63.96
2017-08-02T22:09:03.463Z,64.37
2017-08-02T22:11:29.405Z,64.49
2017-08-02T22:13:55.692Z,64.68
2017-08-02T22:16:21.580Z,64.25
2017-08-02T22:18:47.434Z,64.66
2017-08-02T22:21:13.379Z,64.55
2017-08-02T22:23:39.230Z,64.78
2017-08-02T22:26:05.096Z,64.78
2017-08-02T22:28:30.950Z,64.87
2017-08-02T22:30:57.020Z,64.76
2017-08-02T22:33:22.899Z,64.37
2017-08-02T22:35:48.734Z,64.80
2017-08-02T22:38:14.606Z,65.10
2017-08-02T22:40:40.446Z,65.18
2017-08-02T22:43:06.327Z,65.27
2017-08-02T22:45:32.210Z,65.26
2017-08-02T22:47:58.053Z,65.22
2017-08-02T22:50:23.937Z,65.17
2017-08-02T22:52:49.798Z,64.90
2017-08-02T22:55:15.721Z,64.60
2017-08-02T22:57:41.562Z,64.91
2017-08-02T23:00:07.459Z,65.19
2017-08-02T23:02:33.305Z,65.54
2017-08-02T23:04:59.197Z,65.82
2017-08-02T23:07:25.236Z,65.99
2017-08-02T23:09:51.163Z,65.70
2017-08-02T23:12:17.066Z,65.63
2017-08-02T23:14:43.002Z,65.65
2017-08-02T23:17:08.913Z,66.07
2017-08-02T23:19:34.847Z,66.00
2017-08-02T23:22:00.715Z,66.34
2017-08-02T23:24:26.587Z,66.26
2017-08-02T23:26:52.485Z,66.34
2017-08-02T23:29:18.389Z,66.30
2017-08-02T23:31:44.331Z,66.39
2017-08-02T23:34:10.233Z,66.78
2017-08-02T23:36:37.533Z,66.85
2017-08-02T23:39:04.425Z,66.56
2017-08-02T23:41:30.278Z,66.36
2017-08-02T23:43:56.165Z,66.54
2017-08-02T23:46:22.008Z,66.46
2017-08-02T23:48:47.860Z,66.96
2017-08-02T23:51:13.745Z,67.05
2017-08-02T23:53:39.601Z,67.30
2017-08-02T23:56:05.476Z,67.37
2017-08-02T23:58:31.385Z,67.38
